createdAt,value
2019-05-03T00:02:28.555Z,99.90
2019-05-03T00:04:34.503Z,99.90
2019-05-03T00:06:39.237Z,99.90
2019-05-03T00:08:43.630Z,99.90
2019-05-03T00:10:48.182Z,99.90
2019-05-03T00:12:53.281Z,99.90
2019-05-03T00:15:02.782Z,99.90
2019-05-03T00:17:07.159Z,99.90
2019-05-03T00:19:12.732Z,99.90
2019-05-03T00:21:17.260Z,99.90
2019-05-03T00:23:22.820Z,99.90
2019-05-03T00:25:27.355Z,99.90
2019-05-03T00:27:32.250Z,99.90
2019-05-03T00:29:36.752Z,99.90
2019-05-03T00:31:42.306Z,99.90
2019-05-03T00:33:48.888Z,99.90
2019-05-03T00:36:23.453Z,99.90
2019-05-03T00:38:28.173Z,99.90
2019-05-03T00:40:34.969Z,99.90
2019-05-03T00:42:39.390Z,99.90
2019-05-03T00:44:43.877Z,99.90
2019-05-03T00:46:48.393Z,99.90
2019-05-03T00:48:52.787Z,99.90
2019-05-03T00:50:57.138Z,99.90
2019-05-03T00:53:02.311Z,99.90
2019-05-03T00:55:16.210Z,99.90
2019-05-03T00:57:13.189Z,99.90
2019-05-03T00:59:17.558Z,99.90
2019-05-03T01:01:22.548Z,99.90
2019-05-03T01:03:27.113Z,99.90
2019-05-03T01:05:33.107Z,99.90
2019-05-03T01:07:37.680Z,99.90
2019-05-03T01:09:42.426Z,99.90
2019-05-03T01:11:46.894Z,99.90
2019-05-03T01:13:52.182Z,99.90
2019-05-03T01:16:05.941Z,99.90
2019-05-03T01:18:12.344Z,99.90
2019-05-03T01:20:16.771Z,99.90
2019-05-03T01:22:22.757Z,99.90
2019-05-03T01:24:27.224Z,99.90
2019-05-03T01:26:32.001Z,99.90
2019-05-03T01:28:36.553Z,99.90
2019-05-03T01:30:42.481Z,99.90
2019-05-03T01:32:47.083Z,99.90
2019-05-03T01:34:52.445Z,99.90
2019-05-03T01:36:57.036Z,99.90
2019-05-03T01:39:02.161Z,99.90
2019-05-03T01:41:06.704Z,99.90
2019-05-03T01:43:11.682Z,99.90
2019-05-03T01:45:17.656Z,99.90
2019-05-03T01:47:29.110Z,99.90
2019-05-03T01:49:42.664Z,99.90
2019-05-03T01:51:57.631Z,99.90
2019-05-03T01:54:01.940Z,99.90
2019-05-03T01:56:06.443Z,99.90
2019-05-03T01:58:12.455Z,99.90
2019-05-03T02:00:23.005Z,99.90
2019-05-03T02:02:44.973Z,99.90
2019-05-03T02:05:07.766Z,99.90
2019-05-03T02:07:13.129Z,99.90
2019-05-03T02:09:17.502Z,99.90
2019-05-03T02:11:22.218Z,99.90
2019-05-03T02:13:26.650Z,99.90
2019-05-03T02:15:32.692Z,99.90
2019-05-03T02:17:37.097Z,99.90
2019-05-03T02:19:42.158Z,99.90
2019-05-03T02:21:46.701Z,99.90
2019-05-03T02:23:52.065Z,99.90
2019-05-03T02:25:59.155Z,99.90
2019-05-03T02:28:02.705Z,99.90
2019-05-03T02:30:07.226Z,99.90
2019-05-03T02:32:13.242Z,99.90
2019-05-03T02:34:17.873Z,99.90
2019-05-03T02:36:23.233Z,99.90
2019-05-03T02:38:28.257Z,99.90
2019-05-03T02:40:33.903Z,99.90
2019-05-03T02:42:38.412Z,99.90
2019-05-03T02:44:43.024Z,99.90
2019-05-03T02:46:56.334Z,99.90
2019-05-03T02:49:15.386Z,99.90
2019-05-03T02:51:21.415Z,99.90
2019-05-03T02:53:26.234Z,99.90
2019-05-03T02:55:30.792Z,99.90
2019-05-03T02:57:35.319Z,99.90
2019-05-03T02:59:42.516Z,99.90
2019-05-03T03:01:49.177Z,99.90
2019-05-03T03:03:56.057Z,99.90
2019-05-03T03:06:06.734Z,99.90
2019-05-03T03:08:11.747Z,99.90
2019-05-03T03:10:16.524Z,99.90
2019-05-03T03:12:25.724Z,99.90
2019-05-03T03:14:33.162Z,99.90
2019-05-03T03:16:39.110Z,99.90
2019-05-03T03:18:45.630Z,99.90
2019-05-03T03:20:55.254Z,99.90
2019-05-03T03:23:01.033Z,99.90
2019-05-03T03:25:11.081Z,99.90
2019-05-03T03:27:18.609Z,99.90
2019-05-03T03:29:26.963Z,99.90
2019-05-03T03:32:08.416Z,99.90
2019-05-03T03:34:11.163Z,99.90
2019-05-03T03:36:42.321Z,99.90
2019-05-03T03:38:21.504Z,99.90
2019-05-03T03:40:27.832Z,99.90
2019-05-03T03:42:36.014Z,99.90
2019-05-03T03:44:40.805Z,99.90
2019-05-03T03:46:45.890Z,99.90
2019-05-03T03:48:55.821Z,99.90
2019-05-03T03:51:01.705Z,99.90
2019-05-03T03:53:08.240Z,99.90
2019-05-03T03:55:15.652Z,99.90
2019-05-03T03:57:20.226Z,99.90
2019-05-03T03:59:26.674Z,99.90
2019-05-03T04:01:31.660Z,99.90
2019-05-03T04:03:36.358Z,99.90
2019-05-03T04:05:40.864Z,99.90
2019-05-03T04:07:46.362Z,99.90
2019-05-03T04:09:51.993Z,99.90
2019-05-03T04:11:57.098Z,99.90
2019-05-03T04:14:01.705Z,99.90
2019-05-03T04:16:37.250Z,99.90
2019-05-03T04:18:58.436Z,99.90
2019-05-03T04:21:05.557Z,99.90
2019-05-03T04:23:10.172Z,99.90
2019-05-03T04:25:15.617Z,99.90
2019-05-03T04:27:24.403Z,99.90
2019-05-03T04:29:26.947Z,99.90
2019-05-03T04:31:31.361Z,99.90
2019-05-03T04:33:36.014Z,99.90
2019-05-03T04:35:40.404Z,99.90
2019-05-03T04:37:45.343Z,99.90
2019-05-03T04:39:50.110Z,99.90
2019-05-03T04:41:55.975Z,99.90
2019-05-03T04:44:00.340Z,99.90
2019-05-03T04:46:11.825Z,99.90
2019-05-03T04:48:16.306Z,99.90
2019-05-03T04:50:20.721Z,99.90
2019-05-03T04:52:25.860Z,99.90
2019-05-03T04:54:50.341Z,99.90
2019-05-03T04:56:56.088Z,99.90
2019-05-03T04:59:00.676Z,99.90
2019-05-03T05:01:06.251Z,99.90
2019-05-03T05:03:10.747Z,99.90
2019-05-03T05:05:15.982Z,99.90
2019-05-03T05:07:20.403Z,99.90
2019-05-03T05:09:25.851Z,99.90
2019-05-03T05:11:31.364Z,99.90
2019-05-03T05:13:35.831Z,99.90
2019-05-03T05:15:40.270Z,99.90
2019-05-03T05:17:56.259Z,99.90
2019-05-03T05:20:14.533Z,99.90
2019-05-03T05:22:20.832Z,99.90
2019-05-03T05:24:25.596Z,99.90
2019-05-03T05:26:49.142Z,99.90
2019-05-03T05:28:57.162Z,99.90
2019-05-03T05:31:01.572Z,99.90
2019-05-03T05:33:08.231Z,99.90
2019-05-03T05:35:14.274Z,99.90
2019-05-03T05:37:18.740Z,99.90
2019-05-03T05:39:24.469Z,99.90
2019-05-03T05:41:28.916Z,99.90
2019-05-03T05:43:33.277Z,99.90
2019-05-03T05:45:38.144Z,99.90
2019-05-03T05:47:48.694Z,99.90
2019-05-03T05:49:56.547Z,99.90
2019-05-03T05:52:00.969Z,99.90
2019-05-03T05:54:05.438Z,99.90
2019-05-03T05:56:40.775Z,99.90
2019-05-03T05:58:55.445Z,99.90
2019-05-03T06:01:05.339Z,99.90
2019-05-03T06:03:09.442Z,99.90
2019-05-03T06:05:14.835Z,99.90
2019-05-03T06:07:31.015Z,99.90
2019-05-03T06:09:44.831Z,99.90
2019-05-03T06:11:55.392Z,99.90
2019-05-03T06:14:19.734Z,99.90
2019-05-03T06:16:34.898Z,99.90
2019-05-03T06:19:01.311Z,99.90
2019-05-03T06:21:19.416Z,99.90
2019-05-03T06:23:31.017Z,99.90
2019-05-03T06:25:40.895Z,99.90
2019-05-03T06:27:45.246Z,99.90
2019-05-03T06:29:51.016Z,99.90
2019-05-03T06:32:11.224Z,99.90
2019-05-03T06:34:16.158Z,99.90
2019-05-03T06:36:20.575Z,99.90
2019-05-03T06:38:25.028Z,99.90
2019-05-03T06:40:29.686Z,99.90
2019-05-03T06:42:35.530Z,99.90
2019-05-03T06:44:42.113Z,99.90
2019-05-03T06:46:47.824Z,99.90
2019-05-03T06:48:54.225Z,99.90
2019-05-03T06:51:00.362Z,99.90
2019-05-03T06:53:05.929Z,99.90
2019-05-03T06:55:11.959Z,99.90
2019-05-03T06:57:17.767Z,99.90
2019-05-03T06:59:30.157Z,99.90
2019-05-03T07:01:42.170Z,99.90
2019-05-03T07:04:04.984Z,99.90
2019-05-03T07:06:34.529Z,99.90
2019-05-03T07:08:38.210Z,99.90
2019-05-03T07:10:47.649Z,99.90
2019-05-03T07:12:58.090Z,99.90
2019-05-03T07:15:05.172Z,99.90
2019-05-03T07:17:09.774Z,99.90
2019-05-03T07:19:14.805Z,99.90
2019-05-03T07:21:19.233Z,99.90
2019-05-03T07:23:24.505Z,99.90
2019-05-03T07:25:28.953Z,99.90
2019-05-03T07:27:34.964Z,99.90
2019-05-03T07:29:39.826Z,99.90
2019-05-03T07:31:44.744Z,99.90
2019-05-03T07:33:49.171Z,99.90
2019-05-03T07:35:54.775Z,99.90
2019-05-03T07:37:59.508Z,99.90
2019-05-03T07:40:04.803Z,99.90
2019-05-03T07:42:09.412Z,99.90
2019-05-03T07:44:15.242Z,99.90
2019-05-03T07:46:19.720Z,99.90
2019-05-03T07:48:25.465Z,99.90
2019-05-03T07:50:32.921Z,99.90
2019-05-03T07:52:36.435Z,99.90
2019-05-03T07:54:40.914Z,99.90
2019-05-03T07:57:05.110Z,99.90
2019-05-03T07:59:10.241Z,99.90
2019-05-03T08:01:21.514Z,99.90
2019-05-03T08:03:25.970Z,98.80
2019-05-03T08:05:30.710Z,98.70
2019-05-03T08:07:35.697Z,99.30
2019-05-03T08:09:40.139Z,99.00
2019-05-03T08:11:45.165Z,98.00
2019-05-03T08:13:51.942Z,97.40
2019-05-03T08:15:57.688Z,99.30
2019-05-03T08:18:02.098Z,99.90
2019-05-03T08:20:06.945Z,99.60
2019-05-03T08:22:11.668Z,98.30
2019-05-03T08:24:16.124Z,98.80
2019-05-03T08:26:20.692Z,98.70
2019-05-03T08:28:25.391Z,97.90
2019-05-03T08:30:38.632Z,98.10
2019-05-03T08:32:55.632Z,97.80
2019-05-03T08:35:12.876Z,98.30
2019-05-03T08:37:27.964Z,98.20
2019-05-03T08:39:32.331Z,98.60
2019-05-03T08:41:38.239Z,98.10
2019-05-03T08:43:45.533Z,97.50
2019-05-03T08:45:50.126Z,96.30
2019-05-03T08:47:55.446Z,97.40
2019-05-03T08:50:00.459Z,97.10
2019-05-03T08:52:05.597Z,96.60
2019-05-03T08:54:10.382Z,97.40
2019-05-03T08:56:17.050Z,97.40
2019-05-03T08:58:21.440Z,97.70
2019-05-03T09:00:27.926Z,96.90
2019-05-03T09:02:34.575Z,96.80
2019-05-03T09:04:42.902Z,97.50
2019-05-03T09:06:45.571Z,97.70
2019-05-03T09:08:50.421Z,97.80
2019-05-03T09:11:05.465Z,98.10
2019-05-03T09:13:14.931Z,97.60
2019-05-03T09:15:21.672Z,97.60
2019-05-03T09:17:27.377Z,97.40
2019-05-03T09:19:31.764Z,96.50
2019-05-03T09:21:36.093Z,96.90
2019-05-03T09:23:41.574Z,96.10
2019-05-03T09:25:46.103Z,95.70
2019-05-03T09:27:50.668Z,96.50
2019-05-03T09:29:55.922Z,96.40
2019-05-03T09:32:00.424Z,96.10
2019-05-03T09:34:08.028Z,96.60
2019-05-03T09:36:11.072Z,96.70
2019-05-03T09:38:16.244Z,97.00
2019-05-03T09:40:20.711Z,96.90
2019-05-03T09:42:25.507Z,96.30
2019-05-03T09:44:29.961Z,96.70
2019-05-03T09:46:35.420Z,97.80
2019-05-03T09:48:39.972Z,98.40
2019-05-03T09:50:45.121Z,98.90
2019-05-03T09:52:49.858Z,98.90
2019-05-03T09:54:55.887Z,98.10
2019-05-03T09:57:00.801Z,96.90
2019-05-03T09:59:05.459Z,95.40
2019-05-03T10:01:09.971Z,94.00
2019-05-03T10:03:14.318Z,93.30
2019-05-03T10:05:18.886Z,93.90
2019-05-03T10:07:25.585Z,94.90
2019-05-03T10:09:29.403Z,95.30
2019-05-03T10:11:35.107Z,96.10
2019-05-03T10:13:41.769Z,96.20
2019-05-03T10:15:45.748Z,95.90
2019-05-03T10:17:57.048Z,95.40
2019-05-03T10:20:01.455Z,93.80
2019-05-03T10:22:06.039Z,93.70
2019-05-03T10:24:10.351Z,92.80
2019-05-03T10:26:15.171Z,92.30
2019-05-03T10:28:19.739Z,92.80
2019-05-03T10:30:28.223Z,92.10
2019-05-03T10:32:38.512Z,92.80
2019-05-03T10:34:54.738Z,92.50
2019-05-03T10:36:59.098Z,93.20
2019-05-03T10:39:05.386Z,93.50
2019-05-03T10:41:09.761Z,91.60
2019-05-03T10:43:14.125Z,90.60
2019-05-03T10:45:18.630Z,90.20
2019-05-03T10:47:25.346Z,89.70
2019-05-03T10:49:29.213Z,90.60
2019-05-03T10:51:37.713Z,90.30
2019-05-03T10:53:45.468Z,86.30
2019-05-03T10:56:07.461Z,83.50
2019-05-03T10:58:16.445Z,82.20
2019-05-03T11:00:42.558Z,83.90
2019-05-03T11:02:56.888Z,83.30
2019-05-03T11:05:01.653Z,85.10
2019-05-03T11:07:06.098Z,85.00
2019-05-03T11:09:10.592Z,85.40
2019-05-03T11:11:15.182Z,82.40
2019-05-03T11:13:19.696Z,82.70
2019-05-03T11:15:25.831Z,81.90
2019-05-03T11:17:30.494Z,83.40
2019-05-03T11:19:36.552Z,84.30
2019-05-03T11:21:41.375Z,84.10
2019-05-03T11:23:45.777Z,81.80
2019-05-03T11:25:50.194Z,83.70
2019-05-03T11:27:55.942Z,85.60
2019-05-03T11:30:00.339Z,85.80
2019-05-03T11:32:22.269Z,85.40
2019-05-03T11:34:30.920Z,87.10
2019-05-03T11:36:42.052Z,86.90
2019-05-03T11:38:47.549Z,89.60
2019-05-03T11:40:52.408Z,90.00
2019-05-03T11:42:58.684Z,90.50
2019-05-03T11:45:03.095Z,90.30
2019-05-03T11:47:08.521Z,86.40
2019-05-03T11:49:14.872Z,86.70
2019-05-03T11:51:19.294Z,86.20
2019-05-03T11:53:25.227Z,83.00
2019-05-03T11:55:29.856Z,84.40
2019-05-03T11:57:36.334Z,83.80
2019-05-03T11:59:40.811Z,82.40
2019-05-03T12:01:55.348Z,84.20
2019-05-03T12:04:04.994Z,85.40
2019-05-03T12:06:10.035Z,85.10
2019-05-03T12:08:14.824Z,85.00
2019-05-03T12:10:32.490Z,85.20
2019-05-03T12:12:29.936Z,86.60
2019-05-03T12:14:34.661Z,85.30
2019-05-03T12:17:10.677Z,85.90
2019-05-03T12:18:53.751Z,84.10
2019-05-03T12:20:59.319Z,83.50
2019-05-03T12:23:06.139Z,85.40
2019-05-03T12:25:11.516Z,83.80
2019-05-03T12:27:16.590Z,82.50
2019-05-03T12:29:21.107Z,80.60
2019-05-03T12:31:33.900Z,80.30
2019-05-03T12:33:35.141Z,80.60
2019-05-03T12:35:39.452Z,82.30
2019-05-03T12:37:44.316Z,82.50
2019-05-03T12:39:49.222Z,83.20
2019-05-03T12:41:55.029Z,83.70
2019-05-03T12:43:59.566Z,85.20
2019-05-03T12:46:06.275Z,83.70
2019-05-03T12:48:10.519Z,82.10
2019-05-03T12:50:15.847Z,80.50
2019-05-03T12:52:20.930Z,81.10
2019-05-03T12:54:26.717Z,78.80
2019-05-03T12:56:32.945Z,77.20
2019-05-03T12:58:55.204Z,77.60
2019-05-03T13:01:15.727Z,77.40
2019-05-03T13:03:26.493Z,75.50
2019-05-03T13:05:31.077Z,74.80
2019-05-03T13:07:45.450Z,74.00
2019-05-03T13:09:49.744Z,75.00
2019-05-03T13:11:58.963Z,76.00
2019-05-03T13:14:01.741Z,75.50
2019-05-03T13:16:06.738Z,74.80
2019-05-03T13:18:11.137Z,74.40
2019-05-03T13:20:19.088Z,74.50
2019-05-03T13:22:25.357Z,72.10
2019-05-03T13:24:30.824Z,71.20
2019-05-03T13:26:35.487Z,69.00
2019-05-03T13:28:39.845Z,68.50
2019-05-03T13:30:45.278Z,64.90
2019-05-03T13:32:49.848Z,65.70
2019-05-03T13:34:55.336Z,67.60
2019-05-03T13:36:59.918Z,66.80
2019-05-03T13:39:13.989Z,67.30
2019-05-03T13:41:12.211Z,66.30
2019-05-03T13:43:16.601Z,66.20
2019-05-03T13:45:20.959Z,66.20
2019-05-03T13:47:25.553Z,65.00
2019-05-03T13:49:30.061Z,65.80
2019-05-03T13:51:35.781Z,67.00
2019-05-03T13:53:40.338Z,65.80
2019-05-03T13:55:47.114Z,65.70
2019-05-03T13:57:51.637Z,66.90
2019-05-03T13:59:56.109Z,66.00
2019-05-03T14:02:12.393Z,66.60
2019-05-03T14:04:07.465Z,66.00
2019-05-03T14:06:12.868Z,65.40
2019-05-03T14:08:17.651Z,66.00
2019-05-03T14:10:22.147Z,66.20
2019-05-03T14:12:26.625Z,66.20
2019-05-03T14:14:50.519Z,68.80
2019-05-03T14:16:55.162Z,68.00
2019-05-03T14:19:05.338Z,69.70
2019-05-03T14:21:16.465Z,70.00
2019-05-03T14:23:21.801Z,69.50
2019-05-03T14:25:26.240Z,71.20
2019-05-03T14:27:30.897Z,70.00
2019-05-03T14:29:35.486Z,71.30
2019-05-03T14:31:40.304Z,71.30
2019-05-03T14:33:44.937Z,71.80
2019-05-03T14:35:49.385Z,71.70
2019-05-03T14:37:55.083Z,72.20
2019-05-03T14:39:59.707Z,72.80
2019-05-03T14:42:04.788Z,73.10
2019-05-03T14:44:09.382Z,74.10
2019-05-03T14:46:16.295Z,74.50
2019-05-03T14:48:19.887Z,75.40
2019-05-03T14:50:25.485Z,76.20
2019-05-03T14:52:30.022Z,75.30
2019-05-03T14:54:36.049Z,76.10
2019-05-03T14:56:49.048Z,76.40
2019-05-03T14:59:11.157Z,77.10
2019-05-03T15:01:24.807Z,77.60
2019-05-03T15:03:29.327Z,75.80
2019-05-03T15:05:34.773Z,75.30
2019-05-03T15:07:39.579Z,76.10
2019-05-03T15:09:45.809Z,77.10
2019-05-03T15:11:50.359Z,75.80
2019-05-03T15:13:57.194Z,76.20
2019-05-03T15:16:02.034Z,76.40
2019-05-03T15:18:06.471Z,77.80
2019-05-03T15:20:11.165Z,77.70
2019-05-03T15:22:15.839Z,79.00
2019-05-03T15:24:21.380Z,77.60
2019-05-03T15:26:25.936Z,78.40
2019-05-03T15:28:30.434Z,79.10
2019-05-03T15:30:35.377Z,79.40
2019-05-03T15:32:39.841Z,79.70
2019-05-03T15:34:44.740Z,80.50
2019-05-03T15:36:49.125Z,81.40
2019-05-03T15:38:55.193Z,82.20
2019-05-03T15:41:00.426Z,83.10
2019-05-03T15:43:15.476Z,82.70
2019-05-03T15:45:51.007Z,82.60
2019-05-03T15:48:15.169Z,83.40
2019-05-03T15:52:24.718Z,82.60
2019-05-03T15:54:29.135Z,83.60
2019-05-03T15:56:33.563Z,84.00
2019-05-03T15:58:38.070Z,84.60
2019-05-03T16:00:44.519Z,85.20
2019-05-03T16:02:49.185Z,86.00
2019-05-03T16:04:55.682Z,87.70
2019-05-03T16:07:00.010Z,87.80
2019-05-03T16:09:07.704Z,88.50
2019-05-03T16:11:12.102Z,88.80
2019-05-03T16:13:16.614Z,89.20
2019-05-03T16:15:21.159Z,90.30
2019-05-03T16:17:25.519Z,91.00
2019-05-03T16:19:30.279Z,91.70
2019-05-03T16:21:36.743Z,92.00
2019-05-03T16:23:41.678Z,92.40
2019-05-03T16:25:47.013Z,92.30
2019-05-03T16:28:20.477Z,93.00
2019-05-03T16:30:46.654Z,93.40
2019-05-03T16:32:51.807Z,94.00
2019-05-03T16:34:56.238Z,94.60
2019-05-03T16:37:01.291Z,95.40
2019-05-03T16:39:07.328Z,95.60
2019-05-03T16:41:11.737Z,96.20
2019-05-03T16:43:16.328Z,96.80
2019-05-03T16:45:20.724Z,97.20
2019-05-03T16:47:25.113Z,97.80
2019-05-03T16:49:29.924Z,98.00
2019-05-03T16:51:34.952Z,98.60
2019-05-03T16:53:39.887Z,98.20
2019-05-03T16:55:44.766Z,97.90
2019-05-03T16:57:49.212Z,97.60
2019-05-03T16:59:55.106Z,97.20
2019-05-03T17:02:00.319Z,96.80
2019-05-03T17:04:34.651Z,97.00
2019-05-03T17:07:05.520Z,96.90
2019-05-03T17:09:35.312Z,97.40
2019-05-03T17:11:39.967Z,97.40
2019-05-03T17:13:46.196Z,98.20
2019-05-03T17:15:50.464Z,98.50
2019-05-03T17:17:54.868Z,99.00
2019-05-03T17:19:59.324Z,99.40
2019-05-03T17:22:08.583Z,99.80
2019-05-03T17:24:12.987Z,99.90
2019-05-03T17:26:19.197Z,99.90
2019-05-03T17:28:25.190Z,99.90
2019-05-03T17:30:33.814Z,99.90
2019-05-03T17:32:36.301Z,99.90
2019-05-03T17:34:40.809Z,99.90
2019-05-03T17:36:45.249Z,99.90
2019-05-03T17:38:51.950Z,99.90
2019-05-03T17:41:25.564Z,99.90
2019-05-03T17:43:49.096Z,99.90
2019-05-03T17:45:55.466Z,99.90
2019-05-03T17:48:00.084Z,99.90
2019-05-03T17:50:05.315Z,99.90
2019-05-03T17:52:28.807Z,99.90
2019-05-03T17:55:01.054Z,99.90
2019-05-03T17:57:18.996Z,99.90
2019-05-03T17:59:31.247Z,99.90
2019-05-03T18:02:04.864Z,99.90
2019-05-03T18:04:20.095Z,99.90
2019-05-03T18:06:30.534Z,99.90
2019-05-03T18:08:51.140Z,99.90
2019-05-03T18:11:04.443Z,99.90
2019-05-03T18:13:08.925Z,99.90
2019-05-03T18:15:14.785Z,99.90
2019-05-03T18:17:19.431Z,99.90
2019-05-03T18:19:24.949Z,99.90
2019-05-03T18:21:29.430Z,99.90
2019-05-03T18:23:35.177Z,99.90
2019-05-03T18:25:41.015Z,99.90
2019-05-03T18:27:46.904Z,99.90
2019-05-03T18:29:51.347Z,99.90
2019-05-03T18:31:56.221Z,99.90
2019-05-03T18:34:05.047Z,99.90
2019-05-03T18:36:09.621Z,99.90
2019-05-03T18:38:14.785Z,99.90
2019-05-03T18:40:19.695Z,99.90
2019-05-03T18:42:39.245Z,99.90
2019-05-03T18:44:47.989Z,99.90
2019-05-03T18:46:55.842Z,99.90
2019-05-03T18:49:00.851Z,99.90
2019-05-03T18:51:05.514Z,99.90
2019-05-03T18:53:09.951Z,99.90
2019-05-03T18:55:14.448Z,99.90
2019-05-03T18:57:18.968Z,99.90
2019-05-03T18:59:23.401Z,99.90
2019-05-03T19:01:27.799Z,99.90
2019-05-03T19:03:32.333Z,99.90
2019-05-03T19:05:38.417Z,99.90
2019-05-03T19:07:55.858Z,99.90
2019-05-03T19:10:11.030Z,99.90
2019-05-03T19:12:29.515Z,99.90
2019-05-03T19:14:34.296Z,99.90
2019-05-03T19:16:55.314Z,99.90
2019-05-03T19:19:01.875Z,99.90
2019-05-03T19:21:06.339Z,99.90
2019-05-03T19:23:11.013Z,99.90
2019-05-03T19:25:15.652Z,99.90
2019-05-03T19:27:20.207Z,99.90
2019-05-03T19:29:26.248Z,99.90
2019-05-03T19:31:32.963Z,99.90
2019-05-03T19:33:38.668Z,99.90
2019-05-03T19:35:44.881Z,99.90
2019-05-03T19:37:51.846Z,99.90
2019-05-03T19:39:57.142Z,99.90
2019-05-03T19:42:03.785Z,99.90
2019-05-03T19:44:09.259Z,99.90
2019-05-03T19:46:16.482Z,99.90
2019-05-03T19:48:20.815Z,99.90
2019-05-03T19:50:27.488Z,99.90
2019-05-03T19:52:37.025Z,99.90
2019-05-03T19:55:11.087Z,99.90
2019-05-03T19:57:18.343Z,99.90
2019-05-03T19:59:40.866Z,99.90
2019-05-03T20:01:55.204Z,99.90
2019-05-03T20:04:06.044Z,99.90
2019-05-03T20:06:19.484Z,99.90
2019-05-03T20:08:30.613Z,99.90
2019-05-03T20:10:35.452Z,99.90
2019-05-03T20:12:40.735Z,99.90
2019-05-03T20:14:46.447Z,99.90
2019-05-03T20:16:51.431Z,99.90
2019-05-03T20:18:57.186Z,99.90
2019-05-03T20:21:04.086Z,99.90
2019-05-03T20:23:08.768Z,99.90
2019-05-03T20:25:15.131Z,99.90
2019-05-03T20:27:20.327Z,99.90
2019-05-03T20:29:25.525Z,99.90
2019-05-03T20:31:32.763Z,99.90
2019-05-03T20:33:37.423Z,99.90
2019-05-03T20:35:42.354Z,99.90
2019-05-03T20:37:49.627Z,99.90
2019-05-03T20:39:57.229Z,99.90
2019-05-03T20:42:04.422Z,99.90
2019-05-03T20:44:27.419Z,99.90
2019-05-03T20:46:51.808Z,99.90
2019-05-03T20:48:59.797Z,99.90
2019-05-03T20:51:04.662Z,99.90
2019-05-03T20:53:12.521Z,99.90
2019-05-03T20:55:17.702Z,99.90
2019-05-03T20:57:24.667Z,99.90
2019-05-03T20:59:41.930Z,99.90
2019-05-03T21:01:35.556Z,99.90
2019-05-03T21:03:39.994Z,99.90
2019-05-03T21:05:44.549Z,99.90
2019-05-03T21:07:48.982Z,99.90
2019-05-03T21:09:54.740Z,99.90
2019-05-03T21:11:59.255Z,99.90
2019-05-03T21:14:04.780Z,99.90
2019-05-03T21:16:31.617Z,99.90
2019-05-03T21:19:01.189Z,99.90
2019-05-03T21:21:24.871Z,99.90
2019-05-03T21:23:31.999Z,99.90
2019-05-03T21:26:02.668Z,99.90
2019-05-03T21:27:48.198Z,99.90
2019-05-03T21:29:55.203Z,99.90
2019-05-03T21:32:00.992Z,99.90
2019-05-03T21:34:05.715Z,99.90
2019-05-03T21:36:11.829Z,99.90
2019-05-03T21:38:16.289Z,99.90
2019-05-03T21:40:20.892Z,99.90
2019-05-03T21:42:28.057Z,99.90
2019-05-03T21:44:34.410Z,99.90
2019-05-03T21:46:44.986Z,99.90
2019-05-03T21:49:25.212Z,99.90
2019-05-03T21:51:29.541Z,99.90
2019-05-03T21:53:34.488Z,99.90
2019-05-03T21:55:39.469Z,99.90
2019-05-03T21:57:44.978Z,99.90
2019-05-03T21:59:49.514Z,99.90
2019-05-03T22:01:54.668Z,99.90
2019-05-03T22:03:59.970Z,99.90
2019-05-03T22:06:04.370Z,99.90
2019-05-03T22:08:08.895Z,99.90
2019-05-03T22:10:15.125Z,99.90
2019-05-03T22:12:20.290Z,99.90
2019-05-03T22:14:46.209Z,99.90
2019-05-03T22:17:10.272Z,99.90
2019-05-03T22:19:17.946Z,99.90
2019-05-03T22:21:29.684Z,99.90
2019-05-03T22:23:58.501Z,99.90
2019-05-03T22:26:05.034Z,99.90
2019-05-03T22:28:09.028Z,99.90
2019-05-03T22:30:13.711Z,99.90
2019-05-03T22:32:18.111Z,99.90
2019-05-03T22:34:25.700Z,99.90
2019-05-03T22:36:30.747Z,99.90
2019-05-03T22:38:38.287Z,99.90
2019-05-03T22:40:44.236Z,99.90
2019-05-03T22:42:56.913Z,99.90
2019-05-03T22:45:01.818Z,99.90
2019-05-03T22:47:06.282Z,99.90
2019-05-03T22:49:10.699Z,99.90
2019-05-03T22:51:15.518Z,99.90
2019-05-03T22:53:20.926Z,99.90
2019-05-03T22:55:26.201Z,99.90
2019-05-03T22:57:35.005Z,99.90
2019-05-03T22:59:39.984Z,99.90
2019-05-03T23:01:45.790Z,99.90
2019-05-03T23:03:50.473Z,99.90
2019-05-03T23:05:54.940Z,99.90
2019-05-03T23:07:59.723Z,99.90
2019-05-03T23:10:04.578Z,99.90
2019-05-03T23:12:08.950Z,99.90
2019-05-03T23:14:15.071Z,99.90
2019-05-03T23:16:19.478Z,99.90
2019-05-03T23:18:25.646Z,99.90
2019-05-03T23:20:47.852Z,99.90
2019-05-03T23:22:52.200Z,99.90
2019-05-03T23:24:57.431Z,99.90
2019-05-03T23:27:01.830Z,99.90
2019-05-03T23:29:06.334Z,99.90
2019-05-03T23:31:37.767Z,99.90
2019-05-03T23:33:42.283Z,99.90
2019-05-03T23:35:49.797Z,99.90
2019-05-03T23:37:54.483Z,99.90
2019-05-03T23:39:58.893Z,99.90
2019-05-03T23:42:04.970Z,99.90
2019-05-03T23:44:09.886Z,99.90
2019-05-03T23:46:16.059Z,99.90
2019-05-03T23:48:20.852Z,99.90
2019-05-03T23:50:25.375Z,99.90
2019-05-03T23:52:37.105Z,99.90
2019-05-03T23:54:41.578Z,99.90
2019-05-03T23:56:46.105Z,99.90
2019-05-03T23:58:50.502Z,99.90
